sensor_id;sensor_type;location;lat;lon;timestamp;temperature;humidity
16732;DHT22;8484;50.904;9.192;2023-03-01T00:00:14;-0.80;99.90
16732;DHT22;8484;50.904;9.192;2023-03-01T00:02:41;-0.70;99.90
16732;DHT22;8484;50.904;9.192;2023-03-01T00:05:08;-0.80;99.90
16732;DHT22;8484;50.904;9.192;2023-03-01T00:07:35;-0.80;99.90
16732;DHT22;8484;50.904;9.192;2023-03-01T00:10:01;-0.90;99.90
16732;DHT22;8484;50.904;9.192;2023-03-01T00:12:29;-0.80;99.90
16732;DHT22;8484;50.904;9.192;2023-03-01T00:14:57;-0.90;99.90
16732;DHT22;8484;50.904;9.192;2023-03-01T00:17:24;-1.00;99.90
16732;DHT22;8484;50.904;9.192;2023-03-01T00:19:50;-1.00;99.90
16732;DHT22;8484;50.904;9.192;2023-03-01T00:22:17;-1.00;99.90
16732;DHT22;8484;50.904;9.192;2023-03-01T00:24:44;-1.10;99.90
16732;DHT22;8484;50.904;9.192;2023-03-01T00:27:11;-1.00;99.90
16732;DHT22;8484;50.904;9.192;2023-03-01T00:29:38;-1.00;99.90
16732;DHT22;8484;50.904;9.192;2023-03-01T00:32:06;-1.10;99.90
16732;DHT22;8484;50.904;9.192;2023-03-01T00:34:33;-1.10;99.90
16732;DHT22;8484;50.904;9.192;2023-03-01T00:37:00;-1.10;99.90
16732;DHT22;8484;50.904;9.192;2023-03-01T00:39:31;-1.00;99.90
16732;DHT22;8484;50.904;9.192;2023-03-01T00:41:59;-1.00;99.90
16732;DHT22;8484;50.904;9.192;2023-03-01T00:44:26;-1.10;99.90
16732;DHT22;8484;50.904;9.192;2023-03-01T00:46:54;-1.10;99.90
16732;DHT22;8484;50.904;9.192;2023-03-01T00:49:22;-1.20;99.90
16732;DHT22;8484;50.904;9.192;2023-03-01T00:51:53;-1.10;99.90
16732;DHT22;8484;50.904;9.192;2023-03-01T00:54:20;-1.20;99.90
16732;DHT22;8484;50.904;9.192;2023-03-01T00:56:47;-1.20;99.90
16732;DHT22;8484;50.904;9.192;2023-03-01T00:59:14;-1.20;99.90
16732;DHT22;8484;50.904;9.192;2023-03-01T01:01:40;-1.20;99.90
16732;DHT22;8484;50.904;9.192;2023-03-01T01:04:09;-1.30;99.90
16732;DHT22;8484;50.904;9.192;2023-03-01T01:06:39;-1.30;99.90
16732;DHT22;8484;50.904;9.192;2023-03-01T01:09:09;-1.40;99.90
16732;DHT22;8484;50.904;9.192;2023-03-01T01:11:42;-1.40;99.90
16732;DHT22;8484;50.904;9.192;2023-03-01T01:14:10;-1.40;99.90
16732;DHT22;8484;50.904;9.192;2023-03-01T01:16:36;-1.40;99.90
16732;DHT22;8484;50.904;9.192;2023-03-01T01:19:03;-1.50;99.90
16732;DHT22;8484;50.904;9.192;2023-03-01T01:21:31;-1.50;99.90
16732;DHT22;8484;50.904;9.192;2023-03-01T01:23:59;-1.60;99.90
16732;DHT22;8484;50.904;9.192;2023-03-01T01:26:28;-1.50;99.90
16732;DHT22;8484;50.904;9.192;2023-03-01T01:28:56;-1.50;99.90
16732;DHT22;8484;50.904;9.192;2023-03-01T01:31:25;-1.50;99.90
16732;DHT22;8484;50.904;9.192;2023-03-01T01:33:52;-1.50;99.90
16732;DHT22;8484;50.904;9.192;2023-03-01T01:36:20;-1.50;99.90
16732;DHT22;8484;50.904;9.192;2023-03-01T01:38:47;-1.50;99.90
16732;DHT22;8484;50.904;9.192;2023-03-01T01:41:15;-1.50;99.90
16732;DHT22;8484;50.904;9.192;2023-03-01T01:43:44;-1.40;99.90
16732;DHT22;8484;50.904;9.192;2023-03-01T01:46:19;-1.50;99.90
16732;DHT22;8484;50.904;9.192;2023-03-01T01:48:52;-1.60;99.90
16732;DHT22;8484;50.904;9.192;2023-03-01T01:51:21;-1.50;99.90
16732;DHT22;8484;50.904;9.192;2023-03-01T01:53:54;-1.60;99.90
16732;DHT22;8484;50.904;9.192;2023-03-01T01:56:24;-1.60;99.90
16732;DHT22;8484;50.904;9.192;2023-03-01T01:58:53;-1.60;99.90
16732;DHT22;8484;50.904;9.192;2023-03-01T02:01:20;-1.70;99.90
16732;DHT22;8484;50.904;9.192;2023-03-01T02:03:48;-1.70;99.90
16732;DHT22;8484;50.904;9.192;2023-03-01T02:06:19;-1.70;99.90
16732;DHT22;8484;50.904;9.192;2023-03-01T02:08:49;-1.70;99.90
16732;DHT22;8484;50.904;9.192;2023-03-01T02:11:17;-1.70;99.90
16732;DHT22;8484;50.904;9.192;2023-03-01T02:13:47;-1.70;99.90
16732;DHT22;8484;50.904;9.192;2023-03-01T02:16:15;-1.80;99.90
16732;DHT22;8484;50.904;9.192;2023-03-01T02:18:43;-1.80;99.90
16732;DHT22;8484;50.904;9.192;2023-03-01T02:21:29;-1.70;99.90
16732;DHT22;8484;50.904;9.192;2023-03-01T02:23:59;-1.70;99.90
16732;DHT22;8484;50.904;9.192;2023-03-01T02:26:36;-1.70;99.90
16732;DHT22;8484;50.904;9.192;2023-03-01T02:29:06;-1.80;99.90
16732;DHT22;8484;50.904;9.192;2023-03-01T02:31:33;-1.90;99.90
16732;DHT22;8484;50.904;9.192;2023-03-01T02:34:12;-1.80;99.90
16732;DHT22;8484;50.904;9.192;2023-03-01T02:36:42;-1.80;99.90
16732;DHT22;8484;50.904;9.192;2023-03-01T02:39:14;-1.80;99.90
16732;DHT22;8484;50.904;9.192;2023-03-01T02:41:47;-1.90;99.90
16732;DHT22;8484;50.904;9.192;2023-03-01T02:44:16;-1.90;99.90
16732;DHT22;8484;50.904;9.192;2023-03-01T02:46:44;-1.90;99.90
16732;DHT22;8484;50.904;9.192;2023-03-01T02:49:21;-2.00;99.90
16732;DHT22;8484;50.904;9.192;2023-03-01T02:52:00;-2.00;99.90
16732;DHT22;8484;50.904;9.192;2023-03-01T02:54:31;-2.00;99.90
16732;DHT22;8484;50.904;9.192;2023-03-01T02:57:01;-2.10;99.90
16732;DHT22;8484;50.904;9.192;2023-03-01T02:59:31;-2.10;99.90
16732;DHT22;8484;50.904;9.192;2023-03-01T03:02:00;-2.00;99.90
16732;DHT22;8484;50.904;9.192;2023-03-01T03:04:28;-1.90;99.90
16732;DHT22;8484;50.904;9.192;2023-03-01T03:06:54;-1.90;99.90
16732;DHT22;8484;50.904;9.192;2023-03-01T03:09:21;-1.90;99.90
16732;DHT22;8484;50.904;9.192;2023-03-01T03:11:48;-1.90;99.90
16732;DHT22;8484;50.904;9.192;2023-03-01T03:14:16;-1.90;99.90
16732;DHT22;8484;50.904;9.192;2023-03-01T03:16:46;-2.00;99.90
16732;DHT22;8484;50.904;9.192;2023-03-01T03:19:14;-1.90;99.90
16732;DHT22;8484;50.904;9.192;2023-03-01T03:21:42;-2.00;99.90
16732;DHT22;8484;50.904;9.192;2023-03-01T03:24:09;-1.90;99.90
16732;DHT22;8484;50.904;9.192;2023-03-01T03:26:36;-2.00;99.90
16732;DHT22;8484;50.904;9.192;2023-03-01T03:29:03;-1.90;99.90
16732;DHT22;8484;50.904;9.192;2023-03-01T03:31:30;-2.00;99.90
16732;DHT22;8484;50.904;9.192;2023-03-01T03:33:58;-2.10;99.90
16732;DHT22;8484;50.904;9.192;2023-03-01T03:36:25;-2.10;99.90
16732;DHT22;8484;50.904;9.192;2023-03-01T03:38:52;-2.10;99.90
16732;DHT22;8484;50.904;9.192;2023-03-01T03:41:19;-2.00;99.90
16732;DHT22;8484;50.904;9.192;2023-03-01T03:43:46;-2.10;99.90
16732;DHT22;8484;50.904;9.192;2023-03-01T03:46:14;-2.10;99.90
16732;DHT22;8484;50.904;9.192;2023-03-01T03:48:43;-2.10;99.90
16732;DHT22;8484;50.904;9.192;2023-03-01T03:51:12;-2.20;99.90
16732;DHT22;8484;50.904;9.192;2023-03-01T03:53:40;-2.20;99.90
16732;DHT22;8484;50.904;9.192;2023-03-01T03:56:08;-2.10;99.90
16732;DHT22;8484;50.904;9.192;2023-03-01T03:58:35;-2.30;99.90
16732;DHT22;8484;50.904;9.192;2023-03-01T04:01:02;-2.40;99.90
16732;DHT22;8484;50.904;9.192;2023-03-01T04:03:30;-2.50;99.90
16732;DHT22;8484;50.904;9.192;2023-03-01T04:05:59;-2.20;99.90
16732;DHT22;8484;50.904;9.192;2023-03-01T04:08:28;-2.30;99.90
16732;DHT22;8484;50.904;9.192;2023-03-01T04:10:58;-2.30;99.90
16732;DHT22;8484;50.904;9.192;2023-03-01T04:13:26;-2.30;99.90
16732;DHT22;8484;50.904;9.192;2023-03-01T04:15:54;-2.30;99.90
16732;DHT22;8484;50.904;9.192;2023-03-01T04:18:23;-2.30;99.90
16732;DHT22;8484;50.904;9.192;2023-03-01T04:20:51;-2.40;99.90
16732;DHT22;8484;50.904;9.192;2023-03-01T04:23:21;-2.30;99.90
16732;DHT22;8484;50.904;9.192;2023-03-01T04:25:50;-2.20;99.90
16732;DHT22;8484;50.904;9.192;2023-03-01T04:28:23;-2.30;99.90
16732;DHT22;8484;50.904;9.192;2023-03-01T04:30:50;-2.30;99.90
16732;DHT22;8484;50.904;9.192;2023-03-01T04:33:18;-2.40;99.90
16732;DHT22;8484;50.904;9.192;2023-03-01T04:35:45;-2.40;99.90
16732;DHT22;8484;50.904;9.192;2023-03-01T04:38:15;-2.30;99.90
16732;DHT22;8484;50.904;9.192;2023-03-01T04:40:42;-2.20;99.90
16732;DHT22;8484;50.904;9.192;2023-03-01T04:43:11;-2.20;99.90
16732;DHT22;8484;50.904;9.192;2023-03-01T04:45:39;-2.20;99.90
16732;DHT22;8484;50.904;9.192;2023-03-01T04:48:06;-2.30;99.90
16732;DHT22;8484;50.904;9.192;2023-03-01T04:50:33;-2.30;99.90
16732;DHT22;8484;50.904;9.192;2023-03-01T04:53:01;-2.30;99.90
16732;DHT22;8484;50.904;9.192;2023-03-01T04:55:28;-2.30;99.90
16732;DHT22;8484;50.904;9.192;2023-03-01T04:57:55;-2.20;99.90
16732;DHT22;8484;50.904;9.192;2023-03-01T05:00:24;-2.20;99.90
16732;DHT22;8484;50.904;9.192;2023-03-01T05:02:52;-2.30;99.90
16732;DHT22;8484;50.904;9.192;2023-03-01T05:05:25;-2.20;99.90
16732;DHT22;8484;50.904;9.192;2023-03-01T05:07:56;-2.30;99.90
16732;DHT22;8484;50.904;9.192;2023-03-01T05:10:23;-2.10;99.90
16732;DHT22;8484;50.904;9.192;2023-03-01T05:12:51;-2.10;99.90
16732;DHT22;8484;50.904;9.192;2023-03-01T05:15:20;-2.00;99.90
16732;DHT22;8484;50.904;9.192;2023-03-01T05:17:52;-2.00;99.90
16732;DHT22;8484;50.904;9.192;2023-03-01T05:20:20;-2.00;99.90
16732;DHT22;8484;50.904;9.192;2023-03-01T05:22:49;-2.10;99.90
16732;DHT22;8484;50.904;9.192;2023-03-01T05:25:16;-2.10;99.90
16732;DHT22;8484;50.904;9.192;2023-03-01T05:27:43;-2.10;99.90
16732;DHT22;8484;50.904;9.192;2023-03-01T05:30:11;-2.20;99.90
16732;DHT22;8484;50.904;9.192;2023-03-01T05:32:41;-2.20;99.90
16732;DHT22;8484;50.904;9.192;2023-03-01T05:35:13;-2.20;99.90
16732;DHT22;8484;50.904;9.192;2023-03-01T05:37:41;-2.20;99.90
16732;DHT22;8484;50.904;9.192;2023-03-01T05:40:10;-2.20;99.90
16732;DHT22;8484;50.904;9.192;2023-03-01T05:42:45;-2.10;99.90
16732;DHT22;8484;50.904;9.192;2023-03-01T05:45:13;-2.10;99.90
16732;DHT22;8484;50.904;9.192;2023-03-01T05:47:41;-2.10;99.90
16732;DHT22;8484;50.904;9.192;2023-03-01T05:50:12;-2.10;99.90
16732;DHT22;8484;50.904;9.192;2023-03-01T05:52:40;-2.10;99.90
16732;DHT22;8484;50.904;9.192;2023-03-01T05:55:07;-2.10;99.90
16732;DHT22;8484;50.904;9.192;2023-03-01T05:57:34;-2.10;99.90
16732;DHT22;8484;50.904;9.192;2023-03-01T06:00:01;-2.10;99.90
16732;DHT22;8484;50.904;9.192;2023-03-01T06:02:30;-2.10;99.90
16732;DHT22;8484;50.904;9.192;2023-03-01T06:04:57;-2.10;99.90
16732;DHT22;8484;50.904;9.192;2023-03-01T06:07:25;-2.10;99.90
16732;DHT22;8484;50.904;9.192;2023-03-01T06:09:52;-2.20;99.90
16732;DHT22;8484;50.904;9.192;2023-03-01T06:12:19;-2.30;99.90
16732;DHT22;8484;50.904;9.192;2023-03-01T06:14:46;-2.20;99.90
16732;DHT22;8484;50.904;9.192;2023-03-01T06:17:14;-2.20;99.90
16732;DHT22;8484;50.904;9.192;2023-03-01T06:19:41;-2.10;99.90
16732;DHT22;8484;50.904;9.192;2023-03-01T06:22:08;-2.10;99.90
16732;DHT22;8484;50.904;9.192;2023-03-01T06:24:36;-2.00;99.90
16732;DHT22;8484;50.904;9.192;2023-03-01T06:27:03;-2.00;99.90
16732;DHT22;8484;50.904;9.192;2023-03-01T06:29:30;-1.90;99.90
16732;DHT22;8484;50.904;9.192;2023-03-01T06:31:56;-1.90;99.90
16732;DHT22;8484;50.904;9.192;2023-03-01T06:34:23;-1.90;99.90
16732;DHT22;8484;50.904;9.192;2023-03-01T06:36:50;-1.80;99.90
16732;DHT22;8484;50.904;9.192;2023-03-01T06:39:17;-1.70;99.90
16732;DHT22;8484;50.904;9.192;2023-03-01T06:41:45;-1.70;99.90
16732;DHT22;8484;50.904;9.192;2023-03-01T06:44:12;-1.50;99.90
16732;DHT22;8484;50.904;9.192;2023-03-01T06:46:39;-1.50;99.90
16732;DHT22;8484;50.904;9.192;2023-03-01T06:49:06;-1.30;99.90
16732;DHT22;8484;50.904;9.192;2023-03-01T06:51:35;-1.20;99.90
16732;DHT22;8484;50.904;9.192;2023-03-01T06:54:02;-1.20;99.90
16732;DHT22;8484;50.904;9.192;2023-03-01T06:56:29;-1.10;99.90
16732;DHT22;8484;50.904;9.192;2023-03-01T06:58:57;-1.00;99.90
16732;DHT22;8484;50.904;9.192;2023-03-01T07:01:24;-0.80;99.90
16732;DHT22;8484;50.904;9.192;2023-03-01T07:03:51;-0.80;99.90
16732;DHT22;8484;50.904;9.192;2023-03-01T07:06:17;-0.50;99.90
16732;DHT22;8484;50.904;9.192;2023-03-01T07:08:45;-0.60;99.90
16732;DHT22;8484;50.904;9.192;2023-03-01T07:11:12;-0.40;99.90
16732;DHT22;8484;50.904;9.192;2023-03-01T07:13:39;-0.30;99.90
16732;DHT22;8484;50.904;9.192;2023-03-01T07:16:08;-0.10;99.90
16732;DHT22;8484;50.904;9.192;2023-03-01T07:18:34;0.20;99.90
16732;DHT22;8484;50.904;9.192;2023-03-01T07:21:04;0.30;99.90
16732;DHT22;8484;50.904;9.192;2023-03-01T07:23:31;0.60;99.90
16732;DHT22;8484;50.904;9.192;2023-03-01T07:25:58;0.60;99.90
16732;DHT22;8484;50.904;9.192;2023-03-01T07:28:26;0.60;99.90
16732;DHT22;8484;50.904;9.192;2023-03-01T07:30:53;0.80;99.90
16732;DHT22;8484;50.904;9.192;2023-03-01T07:33:21;1.10;99.90
16732;DHT22;8484;50.904;9.192;2023-03-01T07:35:48;1.50;99.90
16732;DHT22;8484;50.904;9.192;2023-03-01T07:38:15;1.70;99.90
16732;DHT22;8484;50.904;9.192;2023-03-01T07:40:41;1.50;99.90
16732;DHT22;8484;50.904;9.192;2023-03-01T07:43:08;1.70;99.90
16732;DHT22;8484;50.904;9.192;2023-03-01T07:45:35;1.90;99.90
16732;DHT22;8484;50.904;9.192;2023-03-01T07:48:02;1.70;99.90
16732;DHT22;8484;50.904;9.192;2023-03-01T07:50:30;1.70;99.90
16732;DHT22;8484;50.904;9.192;2023-03-01T07:52:57;2.20;99.90
16732;DHT22;8484;50.904;9.192;2023-03-01T07:55:24;2.40;99.90
16732;DHT22;8484;50.904;9.192;2023-03-01T07:57:51;2.00;99.90
16732;DHT22;8484;50.904;9.192;2023-03-01T08:00:18;2.10;99.90
16732;DHT22;8484;50.904;9.192;2023-03-01T08:02:45;2.00;99.90
16732;DHT22;8484;50.904;9.192;2023-03-01T08:05:12;2.20;99.90
16732;DHT22;8484;50.904;9.192;2023-03-01T08:07:40;2.50;99.90
16732;DHT22;8484;50.904;9.192;2023-03-01T08:10:08;2.70;99.90
16732;DHT22;8484;50.904;9.192;2023-03-01T08:12:35;2.80;99.90
16732;DHT22;8484;50.904;9.192;2023-03-01T08:15:02;3.20;99.90
16732;DHT22;8484;50.904;9.192;2023-03-01T08:17:29;2.90;99.90
16732;DHT22;8484;50.904;9.192;2023-03-01T08:19:55;3.20;99.90
16732;DHT22;8484;50.904;9.192;2023-03-01T08:22:22;3.20;99.90
16732;DHT22;8484;50.904;9.192;2023-03-01T08:24:50;3.10;99.90
16732;DHT22;8484;50.904;9.192;2023-03-01T08:27:17;3.10;99.90
16732;DHT22;8484;50.904;9.192;2023-03-01T08:29:44;3.40;99.90
16732;DHT22;8484;50.904;9.192;2023-03-01T08:32:11;3.40;99.90
16732;DHT22;8484;50.904;9.192;2023-03-01T08:34:38;3.80;99.90
16732;DHT22;8484;50.904;9.192;2023-03-01T08:37:04;4.10;99.90
16732;DHT22;8484;50.904;9.192;2023-03-01T08:39:31;4.00;99.90
16732;DHT22;8484;50.904;9.192;2023-03-01T08:42:04;4.70;99.90
16732;DHT22;8484;50.904;9.192;2023-03-01T08:44:31;5.20;99.90
16732;DHT22;8484;50.904;9.192;2023-03-01T08:46:59;5.70;99.90
16732;DHT22;8484;50.904;9.192;2023-03-01T08:49:25;5.80;99.90
16732;DHT22;8484;50.904;9.192;2023-03-01T08:51:52;5.30;99.90
16732;DHT22;8484;50.904;9.192;2023-03-01T08:54:21;5.60;99.90
16732;DHT22;8484;50.904;9.192;2023-03-01T08:56:48;6.00;99.90
16732;DHT22;8484;50.904;9.192;2023-03-01T08:59:17;6.30;99.90
16732;DHT22;8484;50.904;9.192;2023-03-01T09:01:45;7.00;99.90
16732;DHT22;8484;50.904;9.192;2023-03-01T09:04:12;7.20;99.90
16732;DHT22;8484;50.904;9.192;2023-03-01T09:06:39;7.50;99.90
16732;DHT22;8484;50.904;9.192;2023-03-01T09:09:13;7.40;99.90
16732;DHT22;8484;50.904;9.192;2023-03-01T09:11:41;7.70;99.90
16732;DHT22;8484;50.904;9.192;2023-03-01T09:14:09;7.40;99.90
16732;DHT22;8484;50.904;9.192;2023-03-01T09:16:37;8.10;99.90
16732;DHT22;8484;50.904;9.192;2023-03-01T09:19:04;8.30;99.90
16732;DHT22;8484;50.904;9.192;2023-03-01T09:21:31;8.30;99.90
16732;DHT22;8484;50.904;9.192;2023-03-01T09:23:58;8.20;99.90
16732;DHT22;8484;50.904;9.192;2023-03-01T09:26:25;8.60;99.90
16732;DHT22;8484;50.904;9.192;2023-03-01T09:28:53;8.20;99.90
16732;DHT22;8484;50.904;9.192;2023-03-01T09:31:22;8.10;99.90
16732;DHT22;8484;50.904;9.192;2023-03-01T09:33:52;9.00;99.80
16732;DHT22;8484;50.904;9.192;2023-03-01T09:36:21;9.40;99.20
16732;DHT22;8484;50.904;9.192;2023-03-01T09:38:48;9.30;99.50
16732;DHT22;8484;50.904;9.192;2023-03-01T09:41:26;9.80;98.60
16732;DHT22;8484;50.904;9.192;2023-03-01T09:44:01;9.90;97.90
16732;DHT22;8484;50.904;9.192;2023-03-01T09:46:32;9.30;98.20
16732;DHT22;8484;50.904;9.192;2023-03-01T09:49:05;9.70;98.40
16732;DHT22;8484;50.904;9.192;2023-03-01T09:51:36;9.00;99.70
16732;DHT22;8484;50.904;9.192;2023-03-01T09:54:04;10.10;98.50
16732;DHT22;8484;50.904;9.192;2023-03-01T09:56:37;9.90;98.30
16732;DHT22;8484;50.904;9.192;2023-03-01T09:59:16;9.70;98.90
16732;DHT22;8484;50.904;9.192;2023-03-01T10:01:50;8.90;99.20
16732;DHT22;8484;50.904;9.192;2023-03-01T10:04:28;9.70;99.30
16732;DHT22;8484;50.904;9.192;2023-03-01T10:07:10;9.80;97.70
16732;DHT22;8484;50.904;9.192;2023-03-01T10:09:43;9.60;97.10
16732;DHT22;8484;50.904;9.192;2023-03-01T10:12:12;9.60;98.30
16732;DHT22;8484;50.904;9.192;2023-03-01T10:14:48;10.50;97.70
16732;DHT22;8484;50.904;9.192;2023-03-01T10:17:26;10.40;96.80
16732;DHT22;8484;50.904;9.192;2023-03-01T10:19:55;10.40;97.90
16732;DHT22;8484;50.904;9.192;2023-03-01T10:22:32;11.70;96.70
16732;DHT22;8484;50.904;9.192;2023-03-01T10:25:03;11.40;97.00
16732;DHT22;8484;50.904;9.192;2023-03-01T10:27:36;10.20;97.40
16732;DHT22;8484;50.904;9.192;2023-03-01T10:30:16;11.40;94.80
16732;DHT22;8484;50.904;9.192;2023-03-01T10:32:45;10.80;95.30
16732;DHT22;8484;50.904;9.192;2023-03-01T10:35:21;9.50;97.00
16732;DHT22;8484;50.904;9.192;2023-03-01T10:38:02;8.80;97.70
16732;DHT22;8484;50.904;9.192;2023-03-01T10:40:29;9.20;97.50
16732;DHT22;8484;50.904;9.192;2023-03-01T10:42:58;10.30;96.00
16732;DHT22;8484;50.904;9.192;2023-03-01T10:45:32;11.10;95.80
16732;DHT22;8484;50.904;9.192;2023-03-01T10:48:11;11.80;95.70
16732;DHT22;8484;50.904;9.192;2023-03-01T10:50:41;12.80;93.90
16732;DHT22;8484;50.904;9.192;2023-03-01T10:53:20;11.10;93.90
16732;DHT22;8484;50.904;9.192;2023-03-01T10:55:56;11.60;93.60
16732;DHT22;8484;50.904;9.192;2023-03-01T10:58:24;11.20;94.50
16732;DHT22;8484;50.904;9.192;2023-03-01T11:00:52;10.90;95.80
16732;DHT22;8484;50.904;9.192;2023-03-01T11:03:22;11.00;95.30
16732;DHT22;8484;50.904;9.192;2023-03-01T11:06:03;11.80;94.40
16732;DHT22;8484;50.904;9.192;2023-03-01T11:08:33;11.20;94.40
16732;DHT22;8484;50.904;9.192;2023-03-01T11:11:26;11.50;94.50
16732;DHT22;8484;50.904;9.192;2023-03-01T11:13:58;10.90;93.70
16732;DHT22;8484;50.904;9.192;2023-03-01T11:16:30;11.70;94.10
16732;DHT22;8484;50.904;9.192;2023-03-01T11:19:00;10.40;94.70
16732;DHT22;8484;50.904;9.192;2023-03-01T11:21:31;10.40;94.40
16732;DHT22;8484;50.904;9.192;2023-03-01T11:24:00;10.80;94.00
16732;DHT22;8484;50.904;9.192;2023-03-01T11:26:28;10.90;93.30
16732;DHT22;8484;50.904;9.192;2023-03-01T11:29:00;11.50;93.50
16732;DHT22;8484;50.904;9.192;2023-03-01T11:31:30;11.00;93.60
16732;DHT22;8484;50.904;9.192;2023-03-01T11:34:03;12.00;94.30
16732;DHT22;8484;50.904;9.192;2023-03-01T11:36:41;12.10;93.70
16732;DHT22;8484;50.904;9.192;2023-03-01T11:39:20;12.30;92.60
16732;DHT22;8484;50.904;9.192;2023-03-01T11:41:52;12.20;93.10
16732;DHT22;8484;50.904;9.192;2023-03-01T11:44:25;12.50;93.60
16732;DHT22;8484;50.904;9.192;2023-03-01T11:47:07;12.20;93.50
16732;DHT22;8484;50.904;9.192;2023-03-01T11:52:42;11.70;93.60
16732;DHT22;8484;50.904;9.192;2023-03-01T11:55:25;12.40;92.00
16732;DHT22;8484;50.904;9.192;2023-03-01T11:58:13;12.80;91.70
16732;DHT22;8484;50.904;9.192;2023-03-01T12:00:54;13.10;92.60
16732;DHT22;8484;50.904;9.192;2023-03-01T12:03:32;12.10;93.20
16732;DHT22;8484;50.904;9.192;2023-03-01T12:09:22;11.00;93.80
16732;DHT22;8484;50.904;9.192;2023-03-01T12:12:03;11.60;93.30
16732;DHT22;8484;50.904;9.192;2023-03-01T12:14:51;12.00;93.70
16732;DHT22;8484;50.904;9.192;2023-03-01T12:17:44;12.30;92.70
16732;DHT22;8484;50.904;9.192;2023-03-01T12:20:34;12.10;92.20
16732;DHT22;8484;50.904;9.192;2023-03-01T12:23:25;12.40;92.40
16732;DHT22;8484;50.904;9.192;2023-03-01T12:26:02;11.80;92.80
16732;DHT22;8484;50.904;9.192;2023-03-01T12:31:47;11.60;92.50
16732;DHT22;8484;50.904;9.192;2023-03-01T12:34:38;12.10;90.90
16732;DHT22;8484;50.904;9.192;2023-03-01T12:37:22;12.70;90.60
16732;DHT22;8484;50.904;9.192;2023-03-01T12:40:03;12.50;90.20
16732;DHT22;8484;50.904;9.192;2023-03-01T12:42:46;11.90;90.30
16732;DHT22;8484;50.904;9.192;2023-03-01T12:45:37;11.20;91.20
16732;DHT22;8484;50.904;9.192;2023-03-01T12:48:28;11.60;91.70
16732;DHT22;8484;50.904;9.192;2023-03-01T12:51:01;11.40;91.40
16732;DHT22;8484;50.904;9.192;2023-03-01T12:53:30;10.80;92.50
16732;DHT22;8484;50.904;9.192;2023-03-01T12:56:00;10.80;92.50
16732;DHT22;8484;50.904;9.192;2023-03-01T12:58:32;11.40;92.50
16732;DHT22;8484;50.904;9.192;2023-03-01T13:01:14;12.90;91.00
16732;DHT22;8484;50.904;9.192;2023-03-01T13:04:08;12.50;90.70
16732;DHT22;8484;50.904;9.192;2023-03-01T13:06:44;11.70;91.70
16732;DHT22;8484;50.904;9.192;2023-03-01T13:09:19;12.20;90.70
16732;DHT22;8484;50.904;9.192;2023-03-01T13:11:50;11.30;92.20
16732;DHT22;8484;50.904;9.192;2023-03-01T13:14:37;11.00;91.30
16732;DHT22;8484;50.904;9.192;2023-03-01T13:17:32;11.50;90.90
16732;DHT22;8484;50.904;9.192;2023-03-01T13:19:59;11.40;90.90
16732;DHT22;8484;50.904;9.192;2023-03-01T13:22:29;10.50;91.50
16732;DHT22;8484;50.904;9.192;2023-03-01T13:25:03;10.00;92.00
16732;DHT22;8484;50.904;9.192;2023-03-01T13:27:38;10.40;90.80
16732;DHT22;8484;50.904;9.192;2023-03-01T13:30:40;10.30;91.80
16732;DHT22;8484;50.904;9.192;2023-03-01T13:33:41;10.30;92.10
16732;DHT22;8484;50.904;9.192;2023-03-01T13:36:10;10.00;92.60
16732;DHT22;8484;50.904;9.192;2023-03-01T13:38:46;10.00;90.60
16732;DHT22;8484;50.904;9.192;2023-03-01T13:41:15;9.60;90.80
16732;DHT22;8484;50.904;9.192;2023-03-01T13:43:44;9.80;89.90
16732;DHT22;8484;50.904;9.192;2023-03-01T13:46:17;10.20;90.00
16732;DHT22;8484;50.904;9.192;2023-03-01T13:48:47;9.80;90.80
16732;DHT22;8484;50.904;9.192;2023-03-01T13:51:16;9.20;92.20
16732;DHT22;8484;50.904;9.192;2023-03-01T13:53:47;9.00;92.50
16732;DHT22;8484;50.904;9.192;2023-03-01T13:56:17;9.10;91.90
16732;DHT22;8484;50.904;9.192;2023-03-01T13:58:49;9.40;92.30
16732;DHT22;8484;50.904;9.192;2023-03-01T14:01:29;9.50;91.90
16732;DHT22;8484;50.904;9.192;2023-03-01T14:03:56;9.10;91.50
16732;DHT22;8484;50.904;9.192;2023-03-01T14:06:25;9.40;92.40
16732;DHT22;8484;50.904;9.192;2023-03-01T14:09:02;9.40;90.50
16732;DHT22;8484;50.904;9.192;2023-03-01T14:11:57;9.00;91.90
16732;DHT22;8484;50.904;9.192;2023-03-01T14:14:38;9.10;92.10
16732;DHT22;8484;50.904;9.192;2023-03-01T14:17:22;9.00;91.90
16732;DHT22;8484;50.904;9.192;2023-03-01T14:19:57;8.90;91.90
16732;DHT22;8484;50.904;9.192;2023-03-01T14:22:26;9.10;90.60
16732;DHT22;8484;50.904;9.192;2023-03-01T14:24:57;9.30;90.00
16732;DHT22;8484;50.904;9.192;2023-03-01T14:27:26;9.10;90.40
16732;DHT22;8484;50.904;9.192;2023-03-01T14:29:55;8.70;90.80
16732;DHT22;8484;50.904;9.192;2023-03-01T14:32:26;8.40;91.50
16732;DHT22;8484;50.904;9.192;2023-03-01T14:34:53;8.50;91.20
16732;DHT22;8484;50.904;9.192;2023-03-01T14:37:24;8.50;90.80
16732;DHT22;8484;50.904;9.192;2023-03-01T14:39:52;8.40;90.70
16732;DHT22;8484;50.904;9.192;2023-03-01T14:42:20;8.30;91.20
16732;DHT22;8484;50.904;9.192;2023-03-01T14:44:49;8.10;91.60
16732;DHT22;8484;50.904;9.192;2023-03-01T14:47:25;8.00;91.30
16732;DHT22;8484;50.904;9.192;2023-03-01T14:49:57;7.90;90.50
16732;DHT22;8484;50.904;9.192;2023-03-01T14:52:34;7.70;90.40
16732;DHT22;8484;50.904;9.192;2023-03-01T14:55:05;8.00;90.90
16732;DHT22;8484;50.904;9.192;2023-03-01T14:57:32;8.10;90.30
16732;DHT22;8484;50.904;9.192;2023-03-01T15:00:01;8.10;90.20
16732;DHT22;8484;50.904;9.192;2023-03-01T15:02:32;8.00;90.40
16732;DHT22;8484;50.904;9.192;2023-03-01T15:05:02;7.70;90.70
16732;DHT22;8484;50.904;9.192;2023-03-01T15:07:34;7.50;90.90
16732;DHT22;8484;50.904;9.192;2023-03-01T15:10:03;7.50;91.80
16732;DHT22;8484;50.904;9.192;2023-03-01T15:12:38;7.80;90.90
16732;DHT22;8484;50.904;9.192;2023-03-01T15:15:28;7.60;90.90
16732;DHT22;8484;50.904;9.192;2023-03-01T15:18:00;7.30;90.30
16732;DHT22;8484;50.904;9.192;2023-03-01T15:20:29;7.30;90.70
16732;DHT22;8484;50.904;9.192;2023-03-01T15:23:01;7.40;90.20
16732;DHT22;8484;50.904;9.192;2023-03-01T15:25:30;7.10;90.50
16732;DHT22;8484;50.904;9.192;2023-03-01T15:27:58;7.00;90.60
16732;DHT22;8484;50.904;9.192;2023-03-01T15:30:29;7.00;91.10
16732;DHT22;8484;50.904;9.192;2023-03-01T15:33:36;6.90;91.20
16732;DHT22;8484;50.904;9.192;2023-03-01T15:36:30;6.90;91.00
16732;DHT22;8484;50.904;9.192;2023-03-01T15:38:58;6.90;91.60
16732;DHT22;8484;50.904;9.192;2023-03-01T15:41:27;6.70;91.70
16732;DHT22;8484;50.904;9.192;2023-03-01T15:43:57;6.70;91.80
16732;DHT22;8484;50.904;9.192;2023-03-01T15:46:29;6.70;92.20
16732;DHT22;8484;50.904;9.192;2023-03-01T15:49:00;6.60;92.50
16732;DHT22;8484;50.904;9.192;2023-03-01T15:51:34;6.30;92.00
16732;DHT22;8484;50.904;9.192;2023-03-01T15:54:04;6.20;92.20
16732;DHT22;8484;50.904;9.192;2023-03-01T15:56:32;6.00;92.30
16732;DHT22;8484;50.904;9.192;2023-03-01T15:59:01;5.90;92.50
16732;DHT22;8484;50.904;9.192;2023-03-01T16:01:29;5.80;92.70
16732;DHT22;8484;50.904;9.192;2023-03-01T16:03:56;5.80;92.80
16732;DHT22;8484;50.904;9.192;2023-03-01T16:06:25;5.80;93.10
16732;DHT22;8484;50.904;9.192;2023-03-01T16:08:52;5.80;93.60
16732;DHT22;8484;50.904;9.192;2023-03-01T16:11:20;5.70;93.40
16732;DHT22;8484;50.904;9.192;2023-03-01T16:13:47;5.50;94.20
16732;DHT22;8484;50.904;9.192;2023-03-01T16:16:16;5.40;94.10
16732;DHT22;8484;50.904;9.192;2023-03-01T16:18:44;5.50;92.90
16732;DHT22;8484;50.904;9.192;2023-03-01T16:21:14;5.30;92.70
16732;DHT22;8484;50.904;9.192;2023-03-01T16:23:43;5.30;92.70